createdAt,value
2022-11-05T00:01:52.371Z,12.97
2022-11-05T00:04:37.472Z,10.60
2022-11-05T00:07:30.088Z,10.10
2022-11-05T00:09:59.894Z,11.77
2022-11-05T00:12:44.982Z,10.23
2022-11-05T00:15:29.850Z,8.27
2022-11-05T00:17:56.060Z,12.60
2022-11-05T00:20:22.335Z,10.37
2022-11-05T00:23:07.216Z,11.40
2022-11-05T00:25:33.765Z,14.73
2022-11-05T00:28:01.273Z,9.33
2022-11-05T00:30:28.012Z,10.40
2022-11-05T00:32:54.312Z,10.23
2022-11-05T00:35:21.850Z,9.50
2022-11-05T00:37:50.366Z,10.03
2022-11-05T00:40:17.048Z,8.13
2022-11-05T00:43:02.248Z,8.80
2022-11-05T00:45:29.762Z,9.63
2022-11-05T00:48:14.817Z,8.97
2022-11-05T00:50:41.088Z,11.43
2022-11-05T00:53:08.778Z,8.93
2022-11-05T00:55:38.165Z,8.63
2022-11-05T00:58:09.091Z,8.60
2022-11-05T01:00:36.409Z,11.50
2022-11-05T01:03:04.458Z,11.50
2022-11-05T01:05:31.434Z,8.23
2022-11-05T01:07:57.758Z,12.07
2022-11-05T01:10:24.446Z,9.03
2022-11-05T01:12:50.744Z,10.10
2022-11-05T01:15:17.815Z,10.63
2022-11-05T01:17:44.053Z,7.87
2022-11-05T01:20:11.019Z,8.80
2022-11-05T01:22:37.251Z,11.00
2022-11-05T01:25:03.798Z,14.37
2022-11-05T01:27:30.777Z,8.43
2022-11-05T01:29:57.011Z,8.80
2022-11-05T01:32:23.214Z,9.77
2022-11-05T01:34:49.474Z,10.00
2022-11-05T01:37:15.722Z,10.23
2022-11-05T01:39:41.935Z,14.63
2022-11-05T01:42:19.479Z,10.20
2022-11-05T01:44:56.367Z,11.17
2022-11-05T01:47:28.340Z,11.83
2022-11-05T01:49:54.874Z,14.53
2022-11-05T01:52:21.767Z,11.33
2022-11-05T01:54:48.097Z,10.33
2022-11-05T01:57:14.783Z,8.23
2022-11-05T01:59:43.299Z,12.00
2022-11-05T02:02:10.008Z,11.50
2022-11-05T02:04:38.587Z,11.47
2022-11-05T02:07:05.699Z,11.43
2022-11-05T02:09:36.587Z,12.90
2022-11-05T02:12:03.069Z,12.23
2022-11-05T02:14:29.761Z,11.07
2022-11-05T02:17:00.887Z,9.73
2022-11-05T02:19:40.545Z,10.90
2022-11-05T02:22:16.002Z,10.77
2022-11-05T02:25:01.505Z,13.93
2022-11-05T02:27:33.472Z,11.63
2022-11-05T02:30:18.649Z,9.27
2022-11-05T02:32:51.759Z,13.63
2022-11-05T02:35:23.763Z,14.10
2022-11-05T02:38:10.322Z,10.37
2022-11-05T02:40:42.163Z,10.70
2022-11-05T02:43:27.297Z,11.83
2022-11-05T02:46:12.388Z,10.43
2022-11-05T02:48:38.580Z,11.90
2022-11-05T02:51:07.301Z,10.10
2022-11-05T02:53:38.321Z,10.10
2022-11-05T02:56:25.565Z,15.70
2022-11-05T02:58:51.834Z,8.13
2022-11-05T03:01:18.222Z,12.40
2022-11-05T03:03:47.074Z,10.60
2022-11-05T03:06:28.969Z,8.53
2022-11-05T03:09:04.021Z,9.80
2022-11-05T03:11:31.719Z,8.47
2022-11-05T03:13:59.499Z,9.60
2022-11-05T03:16:36.599Z,9.87
2022-11-05T03:19:07.950Z,12.07
2022-11-05T03:21:54.664Z,10.53
2022-11-05T03:24:26.381Z,9.33
2022-11-05T03:26:56.301Z,11.73
2022-11-05T03:29:26.038Z,10.77
2022-11-05T03:31:53.579Z,12.17
2022-11-05T03:34:21.776Z,12.80
2022-11-05T03:36:50.066Z,10.77
2022-11-05T03:39:19.060Z,10.27
2022-11-05T03:41:49.111Z,11.00
2022-11-05T03:44:16.727Z,13.90
2022-11-05T03:46:47.879Z,11.93
2022-11-05T03:49:17.288Z,10.37
2022-11-05T03:51:49.654Z,8.30
2022-11-05T03:54:15.946Z,7.83
2022-11-05T03:56:47.984Z,12.20
2022-11-05T03:59:14.445Z,11.47
2022-11-05T04:01:41.815Z,15.67
2022-11-05T04:04:08.783Z,12.43
2022-11-05T04:06:54.236Z,11.20
2022-11-05T04:09:39.065Z,12.63
2022-11-05T04:12:24.236Z,14.13
2022-11-05T04:14:50.499Z,9.70
2022-11-05T04:17:16.717Z,11.33
2022-11-05T04:20:01.912Z,9.83
2022-11-05T04:22:47.732Z,8.67
2022-11-05T04:25:14.933Z,10.87
2022-11-05T04:27:41.188Z,11.67
2022-11-05T04:30:20.050Z,9.63
2022-11-05T04:32:59.376Z,12.90
2022-11-05T04:35:26.391Z,11.67
2022-11-05T04:37:52.651Z,9.90
2022-11-05T04:40:18.861Z,13.13
2022-11-05T04:42:45.085Z,10.50
2022-11-05T04:45:11.321Z,10.40
2022-11-05T04:47:37.535Z,13.07
2022-11-05T04:50:03.902Z,10.03
2022-11-05T04:52:30.134Z,9.43
2022-11-05T04:54:56.349Z,13.47
2022-11-05T04:57:23.649Z,11.13
2022-11-05T04:59:51.914Z,10.50
2022-11-05T05:02:18.200Z,12.73
2022-11-05T05:04:44.781Z,11.20
2022-11-05T05:07:11.002Z,8.97
2022-11-05T05:09:37.234Z,9.07
2022-11-05T05:12:03.525Z,8.23
2022-11-05T05:14:29.757Z,11.03
2022-11-05T05:16:55.962Z,10.57
2022-11-05T05:19:23.877Z,12.63
2022-11-05T05:21:50.086Z,9.10
2022-11-05T05:24:18.540Z,11.63
2022-11-05T05:26:45.745Z,10.70
2022-11-05T05:29:12.094Z,10.10
2022-11-05T05:31:38.511Z,9.73
2022-11-05T05:34:05.343Z,11.27
2022-11-05T05:36:31.720Z,11.20
2022-11-05T05:38:58.284Z,7.77
2022-11-05T05:41:24.782Z,9.23
2022-11-05T05:43:51.041Z,7.60
2022-11-05T05:46:18.332Z,10.70
2022-11-05T05:48:47.629Z,10.37
2022-11-05T05:51:13.829Z,9.27
2022-11-05T05:53:40.115Z,12.13
2022-11-05T05:56:06.809Z,7.67
2022-11-05T05:58:34.616Z,10.57
2022-11-05T06:01:17.294Z,8.33
2022-11-05T06:03:45.054Z,12.17
2022-11-05T06:06:15.063Z,8.30
2022-11-05T06:08:41.794Z,12.07
2022-11-05T06:11:08.428Z,15.53
2022-11-05T06:13:35.759Z,6.77
2022-11-05T06:16:06.377Z,11.93
2022-11-05T06:18:32.969Z,9.27
2022-11-05T06:21:02.898Z,9.33
2022-11-05T06:23:35.813Z,7.53
2022-11-05T06:26:02.673Z,9.23
2022-11-05T06:28:29.577Z,10.53
2022-11-05T06:30:56.486Z,9.27
2022-11-05T06:33:22.741Z,10.17
2022-11-05T06:35:49.002Z,9.70
2022-11-05T06:38:15.235Z,12.90
2022-11-05T06:40:41.505Z,11.80
2022-11-05T06:43:07.966Z,10.97
2022-11-05T06:45:34.320Z,12.43
2022-11-05T06:48:00.577Z,9.83
2022-11-05T06:50:27.373Z,10.83
2022-11-05T06:52:57.263Z,11.97
2022-11-05T06:55:23.703Z,11.33
2022-11-05T06:57:50.764Z,12.50
2022-11-05T07:00:17.485Z,9.57
2022-11-05T07:02:43.780Z,10.43
2022-11-05T07:05:12.800Z,7.43
2022-11-05T07:07:39.852Z,11.10
2022-11-05T07:10:06.741Z,13.37
2022-11-05T07:12:33.009Z,10.87
2022-11-05T07:14:59.308Z,8.87
2022-11-05T07:17:25.522Z,13.37
2022-11-05T07:19:52.657Z,11.07
2022-11-05T07:22:18.901Z,11.57
2022-11-05T07:24:47.172Z,14.90
2022-11-05T07:27:13.851Z,9.37
2022-11-05T07:29:40.146Z,12.10
2022-11-05T07:32:06.358Z,13.17
2022-11-05T07:34:32.561Z,10.13
2022-11-05T07:36:59.095Z,10.70
2022-11-05T07:39:25.341Z,8.83
2022-11-05T07:41:51.897Z,11.07
2022-11-05T07:44:18.183Z,11.27
2022-11-05T07:46:44.426Z,14.07
2022-11-05T07:49:10.618Z,12.20
2022-11-05T07:51:36.839Z,10.97
2022-11-05T07:54:03.183Z,14.43
2022-11-05T07:56:29.410Z,12.30
2022-11-05T07:58:55.625Z,10.57
2022-11-05T08:01:25.129Z,8.70
2022-11-05T08:03:51.622Z,8.07
2022-11-05T08:06:17.905Z,13.90
2022-11-05T08:08:44.138Z,12.47
2022-11-05T08:11:11.061Z,8.97
2022-11-05T08:13:37.313Z,11.47
2022-11-05T08:16:03.856Z,12.83
2022-11-05T08:18:34.021Z,8.77
2022-11-05T08:21:01.579Z,11.33
2022-11-05T08:23:28.601Z,11.13
2022-11-05T08:25:55.648Z,11.40
2022-11-05T08:28:22.014Z,14.10
2022-11-05T08:30:49.057Z,11.13
2022-11-05T08:33:15.541Z,15.03
2022-11-05T08:35:42.104Z,9.77
2022-11-05T08:38:09.988Z,10.40
2022-11-05T08:40:36.521Z,11.03
2022-11-05T08:43:03.860Z,12.90
2022-11-05T08:45:30.093Z,10.33
2022-11-05T08:48:00.504Z,9.20
2022-11-05T08:50:26.912Z,11.37
2022-11-05T08:52:53.163Z,11.10
2022-11-05T08:55:19.394Z,8.70
2022-11-05T08:57:48.441Z,10.03
2022-11-05T09:00:15.376Z,14.70
2022-11-05T09:02:41.692Z,14.33
2022-11-05T09:05:08.214Z,10.93
2022-11-05T09:07:34.467Z,9.87
2022-11-05T09:10:00.709Z,15.03
2022-11-05T09:12:26.921Z,12.53
2022-11-05T09:14:53.132Z,11.90
2022-11-05T09:17:20.480Z,10.40
2022-11-05T09:19:47.231Z,10.83
2022-11-05T09:22:13.528Z,11.83
2022-11-05T09:24:41.147Z,10.33
2022-11-05T09:27:11.793Z,13.07
2022-11-05T09:29:38.221Z,10.17
2022-11-05T09:32:04.500Z,11.63
2022-11-05T09:34:30.784Z,11.63
2022-11-05T09:36:57.117Z,10.60
2022-11-05T09:39:23.499Z,8.10
2022-11-05T09:41:49.907Z,7.20
2022-11-05T09:44:18.409Z,11.37
2022-11-05T09:46:51.635Z,10.70
2022-11-05T09:49:24.999Z,8.40
2022-11-05T09:51:55.137Z,15.40
2022-11-05T09:54:25.837Z,11.33
2022-11-05T09:56:52.980Z,9.77
2022-11-05T09:59:24.234Z,7.93
2022-11-05T10:01:52.351Z,6.87
2022-11-05T10:04:20.434Z,8.80
2022-11-05T10:06:49.374Z,12.17
2022-11-05T10:09:20.125Z,10.13
2022-11-05T10:12:06.627Z,12.20
2022-11-05T10:14:42.874Z,9.33
2022-11-05T10:17:15.045Z,5.93
2022-11-05T10:19:47.799Z,8.60
2022-11-05T10:22:18.239Z,7.13
2022-11-05T10:24:47.078Z,7.23
2022-11-05T10:27:33.364Z,11.07
2022-11-05T10:30:00.062Z,9.37
2022-11-05T10:32:30.788Z,9.63
2022-11-05T10:34:58.657Z,9.17
2022-11-05T10:37:25.022Z,11.67
2022-11-05T10:39:51.258Z,10.67
2022-11-05T10:42:36.226Z,8.77
2022-11-05T10:45:24.822Z,7.70
2022-11-05T10:48:09.837Z,10.27
2022-11-05T10:50:36.188Z,4.43
2022-11-05T10:53:11.498Z,4.70
2022-11-05T10:55:41.553Z,8.63
2022-11-05T10:58:09.562Z,9.20
2022-11-05T11:00:36.509Z,8.43
2022-11-05T11:03:04.347Z,6.87
2022-11-05T11:05:35.997Z,12.30
2022-11-05T11:08:02.268Z,6.30
2022-11-05T11:10:30.102Z,11.30
2022-11-05T11:12:56.831Z,8.00
2022-11-05T11:15:24.559Z,10.43
2022-11-05T11:17:50.804Z,5.93
2022-11-05T11:20:24.920Z,6.87
2022-11-05T11:23:03.196Z,8.53
2022-11-05T11:25:31.357Z,6.53
2022-11-05T11:28:01.991Z,9.10
2022-11-05T11:30:28.477Z,10.50
2022-11-05T11:32:57.989Z,11.17
2022-11-05T11:35:25.541Z,10.63
2022-11-05T11:37:52.653Z,8.27
2022-11-05T11:40:23.578Z,9.27
2022-11-05T11:42:52.309Z,9.33
2022-11-05T11:45:20.824Z,12.37
2022-11-05T11:47:48.757Z,11.77
2022-11-05T11:50:32.281Z,7.70
2022-11-05T11:53:17.095Z,12.40
2022-11-05T11:55:55.385Z,7.07
2022-11-05T11:58:36.254Z,10.20
2022-11-05T12:01:09.571Z,4.50
2022-11-05T12:03:39.181Z,7.10
2022-11-05T12:06:05.434Z,6.23
2022-11-05T12:08:45.295Z,8.03
2022-11-05T12:11:24.249Z,7.13
2022-11-05T12:13:59.520Z,7.13
2022-11-05T12:16:28.562Z,8.17
2022-11-05T12:19:01.778Z,6.00
2022-11-05T12:21:52.454Z,8.30
2022-11-05T12:24:19.633Z,3.63
2022-11-05T12:26:53.237Z,6.30
2022-11-05T12:29:36.234Z,6.93
2022-11-05T12:32:17.816Z,7.17
2022-11-05T12:34:56.038Z,6.20
2022-11-05T12:37:30.056Z,8.67
2022-11-05T12:39:56.251Z,4.30
2022-11-05T12:42:30.896Z,6.30
2022-11-05T12:45:02.255Z,8.90
2022-11-05T12:47:33.887Z,6.10
2022-11-05T12:50:04.019Z,8.60
2022-11-05T12:52:49.606Z,5.53
2022-11-05T12:55:20.364Z,6.50
2022-11-05T12:57:49.613Z,6.20
2022-11-05T13:00:25.592Z,6.33
2022-11-05T13:02:51.860Z,9.83
2022-11-05T13:05:20.989Z,10.53
2022-11-05T13:07:51.904Z,5.10
2022-11-05T13:10:30.052Z,6.33
2022-11-05T13:13:06.319Z,6.50
2022-11-05T13:15:35.270Z,6.20
2022-11-05T13:18:04.269Z,8.90
2022-11-05T13:20:35.478Z,5.90
2022-11-05T13:23:12.722Z,5.83
2022-11-05T13:25:41.833Z,7.53
2022-11-05T13:28:21.291Z,5.13
2022-11-05T13:30:48.703Z,4.77
2022-11-05T14:42:06.501Z,5.43
2022-11-05T14:44:34.017Z,9.43
2022-11-05T14:47:04.975Z,6.80
2022-11-05T14:49:49.615Z,7.37
2022-11-05T14:52:16.868Z,8.50
2022-11-05T14:54:45.013Z,7.33
2022-11-05T14:57:12.574Z,6.13
2022-11-05T14:59:53.064Z,8.27
2022-11-05T15:02:26.027Z,8.40
2022-11-05T15:05:12.274Z,8.27
2022-11-05T15:07:38.715Z,7.23
2022-11-05T15:10:10.269Z,3.93
2022-11-05T15:12:39.639Z,6.77
2022-11-05T15:15:22.123Z,3.93
2022-11-05T15:17:58.432Z,7.33
2022-11-05T15:20:29.379Z,5.93
2022-11-05T15:22:59.714Z,5.03
2022-11-05T15:25:35.238Z,8.33
2022-11-05T15:28:06.354Z,5.77
2022-11-05T15:30:32.763Z,6.23
2022-11-05T15:33:28.606Z,6.87
2022-11-05T15:35:55.297Z,6.60
2022-11-05T15:38:24.266Z,6.57
2022-11-05T15:40:56.480Z,7.77
2022-11-05T15:43:22.767Z,10.07
2022-11-05T15:46:13.734Z,7.30
2022-11-05T15:48:40.001Z,7.53
2022-11-05T15:51:06.535Z,9.95
2022-11-05T15:54:01.948Z,9.83
2022-11-05T15:56:23.298Z,6.07
2022-11-05T15:58:52.323Z,12.40
2022-11-05T16:01:29.793Z,6.70
2022-11-05T16:04:13.851Z,5.27
2022-11-05T16:06:41.077Z,12.97
2022-11-05T16:09:07.533Z,5.03
2022-11-05T16:11:33.811Z,7.63
2022-11-05T16:14:13.824Z,10.63
2022-11-05T16:16:40.075Z,8.77
2022-11-05T16:19:39.600Z,4.47
2022-11-05T16:22:06.677Z,8.73
2022-11-05T16:24:32.954Z,7.10
2022-11-05T16:27:03.096Z,8.33
2022-11-05T16:29:39.128Z,7.33
2022-11-05T16:32:30.732Z,9.90
2022-11-05T16:34:59.757Z,7.97
2022-11-05T16:37:26.724Z,7.40
2022-11-05T16:39:53.426Z,5.97
2022-11-05T16:42:22.498Z,8.67
2022-11-05T16:44:53.024Z,8.87
2022-11-05T16:47:19.665Z,11.87
2022-11-05T16:49:47.065Z,11.20
2022-11-05T16:52:13.421Z,8.60
2022-11-05T16:54:39.882Z,17.93
2022-11-05T16:57:06.972Z,13.00
2022-11-05T16:59:33.566Z,7.67
2022-11-05T17:01:59.977Z,10.57
2022-11-05T17:04:26.224Z,12.03
2022-11-05T17:06:52.448Z,9.60
2022-11-05T17:09:18.725Z,9.57
2022-11-05T17:11:44.937Z,7.63
2022-11-05T17:14:12.684Z,12.50
2022-11-05T17:16:39.512Z,7.83
2022-11-05T17:19:05.808Z,6.23
2022-11-05T17:21:32.042Z,8.63
2022-11-05T17:23:58.566Z,10.53
2022-11-05T17:26:24.791Z,14.13
2022-11-05T17:28:50.993Z,9.63
2022-11-05T17:31:17.861Z,13.60
2022-11-05T17:33:44.205Z,7.27
2022-11-05T17:36:12.681Z,10.10
2022-11-05T17:38:39.238Z,8.10
2022-11-05T17:41:15.929Z,18.63
2022-11-05T17:43:42.620Z,8.87
2022-11-05T17:46:11.304Z,9.20
2022-11-05T17:48:38.188Z,7.67
2022-11-05T17:51:04.952Z,10.73
2022-11-05T17:53:31.198Z,9.80
2022-11-05T17:55:58.078Z,12.93
2022-11-05T17:58:24.293Z,9.87
2022-11-05T18:00:50.571Z,10.40
2022-11-05T18:03:16.906Z,9.37
2022-11-05T18:05:43.323Z,10.90
2022-11-05T18:08:10.161Z,7.77
2022-11-05T18:10:37.659Z,9.63
2022-11-05T18:13:03.921Z,9.87
2022-11-05T18:15:30.196Z,10.10
2022-11-05T18:17:56.444Z,12.13
2022-11-05T18:20:22.740Z,13.47
2022-11-05T18:22:50.096Z,13.33
2022-11-05T18:25:16.470Z,11.90
2022-11-05T18:27:42.796Z,14.93
2022-11-05T18:30:10.551Z,13.90
2022-11-05T18:32:37.243Z,17.97
2022-11-05T18:35:06.597Z,11.80
2022-11-05T18:37:32.822Z,17.03
2022-11-05T18:39:59.067Z,17.60
2022-11-05T18:42:25.432Z,13.33
2022-11-05T18:44:51.704Z,12.17
2022-11-05T18:47:17.959Z,12.70
2022-11-05T18:49:44.335Z,15.03
2022-11-05T18:52:10.609Z,13.97
2022-11-05T18:54:36.873Z,14.20
2022-11-05T18:57:03.177Z,16.20
2022-11-05T18:59:38.995Z,15.13
2022-11-05T19:02:06.569Z,11.93
2022-11-05T19:04:34.588Z,15.60
2022-11-05T19:07:04.790Z,14.17
2022-11-05T19:09:32.095Z,14.63
2022-11-05T19:12:00.258Z,16.87
2022-11-05T19:14:26.461Z,13.70
2022-11-05T19:16:52.682Z,18.07
2022-11-05T19:19:18.949Z,15.30
2022-11-05T19:21:45.232Z,14.63
2022-11-05T19:24:16.731Z,14.93
2022-11-05T19:26:43.238Z,14.53
2022-11-05T19:29:09.470Z,19.50
2022-11-05T19:31:35.875Z,14.60
2022-11-05T19:34:03.098Z,15.87
2022-11-05T19:36:31.126Z,16.27
2022-11-05T19:38:58.539Z,18.67
2022-11-05T19:41:25.259Z,17.13
2022-11-05T19:43:54.160Z,17.90
2022-11-05T19:46:21.483Z,16.37
2022-11-05T19:48:47.811Z,23.33
2022-11-05T19:51:15.488Z,18.20
2022-11-05T19:53:42.161Z,14.53
2022-11-05T19:56:10.632Z,15.33
2022-11-05T19:58:36.874Z,14.57
2022-11-05T20:01:03.323Z,22.20
2022-11-05T20:03:32.335Z,17.63
2022-11-05T20:06:06.022Z,18.43
2022-11-05T20:08:32.568Z,17.77
2022-11-05T20:10:58.985Z,19.40
2022-11-05T20:13:25.242Z,18.93
2022-11-05T20:15:51.477Z,15.93
2022-11-05T20:18:17.710Z,17.57
2022-11-05T20:20:44.134Z,16.47
2022-11-05T20:23:10.514Z,16.63
2022-11-05T20:25:36.750Z,19.90
2022-11-05T20:28:03.447Z,15.37
2022-11-05T20:30:29.819Z,19.23
2022-11-05T20:32:56.561Z,19.20
2022-11-05T20:35:25.808Z,16.30
2022-11-05T20:37:55.146Z,14.77
2022-11-05T20:40:23.630Z,16.37
2022-11-05T20:42:49.866Z,15.63
2022-11-05T20:45:16.099Z,15.60
2022-11-05T20:47:43.875Z,13.63
2022-11-05T20:50:10.137Z,15.03
2022-11-05T20:52:39.902Z,14.67
2022-11-05T20:55:10.797Z,18.77
2022-11-05T20:57:37.336Z,16.50
2022-11-05T21:00:07.069Z,15.77
2022-11-05T21:02:37.893Z,13.07
2022-11-05T21:05:04.485Z,18.70
2022-11-05T21:07:30.743Z,12.37
2022-11-05T21:09:56.977Z,12.10
2022-11-05T21:12:23.246Z,12.20
2022-11-05T21:14:50.972Z,13.67
2022-11-05T21:17:17.204Z,11.90
2022-11-05T21:19:43.652Z,15.17
2022-11-05T21:22:10.205Z,15.80
2022-11-05T21:24:36.428Z,16.03
2022-11-05T21:27:02.673Z,15.77
2022-11-05T21:29:28.885Z,16.10
2022-11-05T21:31:55.145Z,19.23
2022-11-05T21:34:21.496Z,16.77
2022-11-05T21:36:47.876Z,14.57
2022-11-05T21:39:14.157Z,18.30
2022-11-05T21:41:40.424Z,14.93
2022-11-05T21:44:06.667Z,15.73
2022-11-05T21:46:32.984Z,15.37
2022-11-05T21:48:59.199Z,13.93
2022-11-05T21:51:44.366Z,20.87
2022-11-05T21:54:29.781Z,27.07
2022-11-05T21:57:14.594Z,22.10
2022-11-05T21:59:51.657Z,23.50
2022-11-05T22:02:22.144Z,21.13
2022-11-05T22:04:50.112Z,15.13
2022-11-05T22:07:17.738Z,21.40
2022-11-05T22:09:44.290Z,14.70
2022-11-05T22:12:10.594Z,15.83
2022-11-05T22:14:36.878Z,15.27
2022-11-05T22:17:03.690Z,12.90
2022-11-05T22:19:30.828Z,14.47
2022-11-05T22:21:57.181Z,12.97
2022-11-05T22:24:24.158Z,15.27
2022-11-05T22:26:50.393Z,16.10
2022-11-05T22:29:17.289Z,14.17
2022-11-05T22:31:43.617Z,12.97
2022-11-05T22:34:10.814Z,13.37
2022-11-05T22:36:37.048Z,15.67
2022-11-05T22:39:03.880Z,15.83
2022-11-05T22:41:30.179Z,14.20
2022-11-05T22:43:56.724Z,15.93
2022-11-05T22:46:23.952Z,14.77
2022-11-05T22:48:50.590Z,13.27
2022-11-05T22:51:18.557Z,13.97
2022-11-05T22:53:44.875Z,13.13
2022-11-05T22:56:12.332Z,12.47
2022-11-05T22:58:38.571Z,13.07
2022-11-05T23:01:06.668Z,11.13
2022-11-05T23:03:33.386Z,13.17
2022-11-05T23:06:31.227Z,13.43
2022-11-05T23:09:16.793Z,13.77
2022-11-05T23:11:44.086Z,18.87
2022-11-05T23:14:11.425Z,11.03
2022-11-05T23:16:56.620Z,8.77
2022-11-05T23:19:41.950Z,14.10
2022-11-05T23:22:53.078Z,13.90
2022-11-05T23:25:20.688Z,13.67
2022-11-05T23:27:48.063Z,16.07
2022-11-05T23:30:15.632Z,13.07
2022-11-05T23:32:41.895Z,18.23
2022-11-05T23:35:08.656Z,14.87
2022-11-05T23:37:53.554Z,13.20
2022-11-05T23:40:21.563Z,15.83
2022-11-05T23:43:06.732Z,15.60
2022-11-05T23:45:51.887Z,12.23
2022-11-05T23:48:21.682Z,13.80
2022-11-05T23:50:56.994Z,21.10
2022-11-05T23:53:23.447Z,12.43
2022-11-05T23:55:49.878Z,12.30
2022-11-05T23:58:16.830Z,14.47
